This is the latest recevied weather packets stored in our database for station/object SP9POL-3. If no packets are shown the sender has not sent any weather packets the latest 10 day(s).
| Time | Temp. | Humidity | Pressure | Rain* | Wind** | Luminosity | Snow |
|---|---|---|---|---|---|---|---|
| 1778014215 | 17.78° C | 31% | 1005 hPa | - | - | - | - |
| 1778012535 | 17.78° C | 26% | 1004.7 hPa | - | - | - | - |
| 1778010855 | 18.33° C | 24% | 1004.4 hPa | - | - | - | - |
| 1778009175 | 18.89° C | 24% | 1004.4 hPa | - | - | - | - |
| 1778007495 | 18.89° C | 25% | 1004.5 hPa | - | - | - | - |
| 1778005815 | 19.44° C | 23% | 1004.5 hPa | - | - | - | - |
| 1778004134 | 20.56° C | 22% | 1004.4 hPa | - | - | - | - |
| 1778002454 | 21.67° C | 20% | 1004.5 hPa | - | - | - | - |
| 1778000774 | 22.22° C | 19% | 1004.6 hPa | - | - | - | - |
| 1777999094 | 22.78° C | 18% | 1004.8 hPa | - | - | - | - |
| 1777997414 | 24.44° C | 17% | 1004.8 hPa | - | - | - | - |
| 1777995734 | 26.11° C | 15% | 1005 hPa | - | - | - | - |
| 1777994053 | 27.22° C | 14% | 1005.2 hPa | - | - | - | - |
| 1777992373 | 28.89° C | 13% | 1005.3 hPa | - | - | - | - |
| 1777990693 | 24.44° C | 18% | 1005.6 hPa | - | - | - | - |
| 1777989012 | 23.89° C | 19% | 1005.8 hPa | - | - | - | - |
| 1777987332 | 24.44° C | 20% | 1005.9 hPa | - | - | - | - |
| 1777985652 | 26.11° C | 18% | 1006.1 hPa | - | - | - | - |
| 1777983972 | 27.78° C | 18% | 1006.5 hPa | - | - | - | - |
| 1777982291 | 27.78° C | 16% | 1006.9 hPa | - | - | - | - |
| 1777980611 | 27.78° C | 16% | 1007 hPa | - | - | - | - |
| 1777978931 | 24.44° C | 22% | 1007.3 hPa | - | - | - | - |
| 1777977250 | 22.22° C | 27% | 1007.7 hPa | - | - | - | - |
| 1777975570 | 21.11° C | 31% | 1008.1 hPa | - | - | - | - |
| 1777973890 | 20° C | 35% | 1008.3 hPa | - | - | - | - |
* Rain since midnight (hover to see other rain measurements)
** Current wind speed in m/s (hover to see current wind gust speed)